sensor_id;sensor_type;location;lat;lon;timestamp;P1;durP1;ratioP1;P2;durP2;ratioP2
22026;SDS011;11177;50.966;10.070;2023-09-07T00:02:09;9.48;;;5.80;;
22026;SDS011;11177;50.966;10.070;2023-09-07T00:04:37;8.30;;;6.07;;
22026;SDS011;11177;50.966;10.070;2023-09-07T00:07:04;8.07;;;5.82;;
22026;SDS011;11177;50.966;10.070;2023-09-07T00:09:32;9.63;;;6.43;;
22026;SDS011;11177;50.966;10.070;2023-09-07T00:11:58;7.93;;;6.03;;
22026;SDS011;11177;50.966;10.070;2023-09-07T00:14:25;8.27;;;6.05;;
22026;SDS011;11177;50.966;10.070;2023-09-07T00:16:52;7.15;;;5.93;;
22026;SDS011;11177;50.966;10.070;2023-09-07T00:19:19;9.48;;;6.32;;
22026;SDS011;11177;50.966;10.070;2023-09-07T00:21:46;9.93;;;5.78;;
22026;SDS011;11177;50.966;10.070;2023-09-07T00:24:13;13.25;;;6.13;;
22026;SDS011;11177;50.966;10.070;2023-09-07T00:26:42;10.15;;;6.03;;
22026;SDS011;11177;50.966;10.070;2023-09-07T00:29:09;11.70;;;6.28;;
22026;SDS011;11177;50.966;10.070;2023-09-07T00:31:36;7.03;;;5.63;;
22026;SDS011;11177;50.966;10.070;2023-09-07T00:34:03;7.57;;;5.70;;
22026;SDS011;11177;50.966;10.070;2023-09-07T00:36:30;6.85;;;5.40;;
22026;SDS011;11177;50.966;10.070;2023-09-07T00:38:57;7.93;;;5.57;;
22026;SDS011;11177;50.966;10.070;2023-09-07T00:41:24;7.57;;;5.63;;
22026;SDS011;11177;50.966;10.070;2023-09-07T00:43:51;7.32;;;5.30;;
22026;SDS011;11177;50.966;10.070;2023-09-07T00:46:17;9.73;;;5.25;;
22026;SDS011;11177;50.966;10.070;2023-09-07T00:48:44;8.68;;;5.10;;
22026;SDS011;11177;50.966;10.070;2023-09-07T00:51:11;6.63;;;5.85;;
22026;SDS011;11177;50.966;10.070;2023-09-07T00:53:38;8.52;;;6.43;;
22026;SDS011;11177;50.966;10.070;2023-09-07T00:56:06;9.70;;;6.18;;
22026;SDS011;11177;50.966;10.070;2023-09-07T00:58:33;8.32;;;5.55;;
22026;SDS011;11177;50.966;10.070;2023-09-07T01:01:00;8.18;;;5.95;;
22026;SDS011;11177;50.966;10.070;2023-09-07T01:03:27;8.35;;;5.70;;
22026;SDS011;11177;50.966;10.070;2023-09-07T01:06:04;7.15;;;6.03;;
22026;SDS011;11177;50.966;10.070;2023-09-07T01:08:43;10.60;;;6.10;;
22026;SDS011;11177;50.966;10.070;2023-09-07T01:11:13;10.13;;;6.20;;
22026;SDS011;11177;50.966;10.070;2023-09-07T01:13:41;7.90;;;5.60;;
22026;SDS011;11177;50.966;10.070;2023-09-07T01:16:09;8.00;;;6.10;;
22026;SDS011;11177;50.966;10.070;2023-09-07T01:18:37;6.82;;;5.75;;
22026;SDS011;11177;50.966;10.070;2023-09-07T01:21:06;11.13;;;5.90;;
22026;SDS011;11177;50.966;10.070;2023-09-07T01:23:40;8.52;;;5.65;;
22026;SDS011;11177;50.966;10.070;2023-09-07T01:26:08;8.32;;;5.63;;
22026;SDS011;11177;50.966;10.070;2023-09-07T01:28:36;8.57;;;5.75;;
22026;SDS011;11177;50.966;10.070;2023-09-07T01:31:04;8.73;;;6.00;;
22026;SDS011;11177;50.966;10.070;2023-09-07T01:33:32;6.88;;;5.10;;
22026;SDS011;11177;50.966;10.070;2023-09-07T01:35:59;9.93;;;5.50;;
22026;SDS011;11177;50.966;10.070;2023-09-07T01:38:26;8.80;;;5.70;;
22026;SDS011;11177;50.966;10.070;2023-09-07T01:40:53;7.65;;;5.80;;
22026;SDS011;11177;50.966;10.070;2023-09-07T01:43:20;8.13;;;5.78;;
22026;SDS011;11177;50.966;10.070;2023-09-07T01:45:47;8.55;;;5.57;;
22026;SDS011;11177;50.966;10.070;2023-09-07T01:48:14;8.25;;;5.97;;
22026;SDS011;11177;50.966;10.070;2023-09-07T01:50:41;9.32;;;5.88;;
22026;SDS011;11177;50.966;10.070;2023-09-07T01:53:08;7.30;;;5.90;;
22026;SDS011;11177;50.966;10.070;2023-09-07T01:55:35;7.25;;;5.53;;
22026;SDS011;11177;50.966;10.070;2023-09-07T01:58:02;9.10;;;5.70;;
22026;SDS011;11177;50.966;10.070;2023-09-07T02:00:29;8.98;;;5.93;;
22026;SDS011;11177;50.966;10.070;2023-09-07T02:02:56;9.75;;;5.70;;
22026;SDS011;11177;50.966;10.070;2023-09-07T02:05:23;6.60;;;4.88;;
22026;SDS011;11177;50.966;10.070;2023-09-07T02:07:50;9.80;;;5.60;;
22026;SDS011;11177;50.966;10.070;2023-09-07T02:10:18;7.50;;;4.90;;
22026;SDS011;11177;50.966;10.070;2023-09-07T02:12:45;6.40;;;4.70;;
22026;SDS011;11177;50.966;10.070;2023-09-07T02:15:13;6.18;;;5.10;;
22026;SDS011;11177;50.966;10.070;2023-09-07T02:17:40;8.23;;;5.00;;
22026;SDS011;11177;50.966;10.070;2023-09-07T02:20:07;6.72;;;5.07;;
22026;SDS011;11177;50.966;10.070;2023-09-07T02:22:37;5.43;;;4.93;;
22026;SDS011;11177;50.966;10.070;2023-09-07T02:25:05;7.40;;;4.82;;
22026;SDS011;11177;50.966;10.070;2023-09-07T02:27:32;8.10;;;5.40;;
22026;SDS011;11177;50.966;10.070;2023-09-07T02:29:59;10.10;;;5.85;;
22026;SDS011;11177;50.966;10.070;2023-09-07T02:32:26;10.85;;;5.97;;
22026;SDS011;11177;50.966;10.070;2023-09-07T02:34:53;7.95;;;6.03;;
22026;SDS011;11177;50.966;10.070;2023-09-07T02:37:20;11.10;;;5.82;;
22026;SDS011;11177;50.966;10.070;2023-09-07T02:39:47;10.07;;;5.70;;
22026;SDS011;11177;50.966;10.070;2023-09-07T02:42:14;9.85;;;6.45;;
22026;SDS011;11177;50.966;10.070;2023-09-07T02:44:41;13.15;;;6.07;;
22026;SDS011;11177;50.966;10.070;2023-09-07T02:47:07;10.63;;;6.05;;
22026;SDS011;11177;50.966;10.070;2023-09-07T02:49:38;9.55;;;5.75;;
22026;SDS011;11177;50.966;10.070;2023-09-07T02:52:05;9.73;;;5.95;;
22026;SDS011;11177;50.966;10.070;2023-09-07T02:54:32;10.02;;;5.68;;
22026;SDS011;11177;50.966;10.070;2023-09-07T02:56:59;6.20;;;5.22;;
22026;SDS011;11177;50.966;10.070;2023-09-07T02:59:25;7.35;;;4.80;;
22026;SDS011;11177;50.966;10.070;2023-09-07T03:01:52;4.75;;;4.35;;
22026;SDS011;11177;50.966;10.070;2023-09-07T03:04:19;5.28;;;4.55;;
22026;SDS011;11177;50.966;10.070;2023-09-07T03:06:46;4.57;;;4.18;;
22026;SDS011;11177;50.966;10.070;2023-09-07T03:09:13;6.97;;;4.80;;
22026;SDS011;11177;50.966;10.070;2023-09-07T03:11:40;5.35;;;4.80;;
22026;SDS011;11177;50.966;10.070;2023-09-07T03:14:07;5.35;;;4.60;;
22026;SDS011;11177;50.966;10.070;2023-09-07T03:16:34;4.90;;;4.40;;
22026;SDS011;11177;50.966;10.070;2023-09-07T03:19:01;5.78;;;4.40;;
22026;SDS011;11177;50.966;10.070;2023-09-07T03:21:28;5.57;;;3.90;;
22026;SDS011;11177;50.966;10.070;2023-09-07T03:23:56;4.70;;;3.70;;
22026;SDS011;11177;50.966;10.070;2023-09-07T03:26:24;4.50;;;4.10;;
22026;SDS011;11177;50.966;10.070;2023-09-07T03:28:51;4.30;;;3.90;;
22026;SDS011;11177;50.966;10.070;2023-09-07T03:31:18;4.40;;;4.00;;
22026;SDS011;11177;50.966;10.070;2023-09-07T03:33:46;4.43;;;3.95;;
22026;SDS011;11177;50.966;10.070;2023-09-07T03:36:13;5.53;;;4.20;;
22026;SDS011;11177;50.966;10.070;2023-09-07T03:38:42;4.10;;;3.78;;
22026;SDS011;11177;50.966;10.070;2023-09-07T03:41:10;6.10;;;4.10;;
22026;SDS011;11177;50.966;10.070;2023-09-07T03:43:37;7.32;;;4.28;;
22026;SDS011;11177;50.966;10.070;2023-09-07T03:46:03;5.38;;;4.82;;
22026;SDS011;11177;50.966;10.070;2023-09-07T03:48:30;5.68;;;4.65;;
22026;SDS011;11177;50.966;10.070;2023-09-07T03:50:58;5.68;;;5.07;;
22026;SDS011;11177;50.966;10.070;2023-09-07T03:53:25;5.97;;;5.28;;
22026;SDS011;11177;50.966;10.070;2023-09-07T03:55:52;6.25;;;5.03;;
22026;SDS011;11177;50.966;10.070;2023-09-07T03:58:19;7.45;;;5.00;;
22026;SDS011;11177;50.966;10.070;2023-09-07T04:00:46;7.50;;;4.75;;
22026;SDS011;11177;50.966;10.070;2023-09-07T04:03:14;5.85;;;4.43;;
22026;SDS011;11177;50.966;10.070;2023-09-07T04:05:41;4.88;;;4.40;;
22026;SDS011;11177;50.966;10.070;2023-09-07T04:08:08;5.28;;;4.78;;
22026;SDS011;11177;50.966;10.070;2023-09-07T04:10:38;5.03;;;4.47;;
22026;SDS011;11177;50.966;10.070;2023-09-07T04:13:07;6.07;;;4.75;;
22026;SDS011;11177;50.966;10.070;2023-09-07T04:15:40;6.07;;;4.97;;
22026;SDS011;11177;50.966;10.070;2023-09-07T04:18:11;8.43;;;5.72;;
22026;SDS011;11177;50.966;10.070;2023-09-07T04:20:43;8.82;;;6.57;;
22026;SDS011;11177;50.966;10.070;2023-09-07T04:23:10;7.90;;;6.40;;
22026;SDS011;11177;50.966;10.070;2023-09-07T04:25:37;13.00;;;6.32;;
22026;SDS011;11177;50.966;10.070;2023-09-07T04:28:05;8.52;;;6.28;;
22026;SDS011;11177;50.966;10.070;2023-09-07T04:30:33;10.73;;;6.30;;
22026;SDS011;11177;50.966;10.070;2023-09-07T04:33:04;7.95;;;6.57;;
22026;SDS011;11177;50.966;10.070;2023-09-07T04:35:32;11.50;;;6.18;;
22026;SDS011;11177;50.966;10.070;2023-09-07T04:38:00;12.75;;;6.13;;
22026;SDS011;11177;50.966;10.070;2023-09-07T04:40:27;11.15;;;5.93;;
22026;SDS011;11177;50.966;10.070;2023-09-07T04:42:54;10.93;;;6.03;;
22026;SDS011;11177;50.966;10.070;2023-09-07T04:45:21;7.43;;;5.85;;
22026;SDS011;11177;50.966;10.070;2023-09-07T04:47:49;9.85;;;6.32;;
22026;SDS011;11177;50.966;10.070;2023-09-07T04:50:16;7.10;;;5.68;;
22026;SDS011;11177;50.966;10.070;2023-09-07T04:52:43;8.90;;;6.18;;
22026;SDS011;11177;50.966;10.070;2023-09-07T04:55:10;11.57;;;7.32;;
22026;SDS011;11177;50.966;10.070;2023-09-07T04:57:37;9.90;;;6.53;;
22026;SDS011;11177;50.966;10.070;2023-09-07T05:00:05;8.30;;;6.53;;
22026;SDS011;11177;50.966;10.070;2023-09-07T05:02:34;10.20;;;6.82;;
22026;SDS011;11177;50.966;10.070;2023-09-07T05:05:05;7.97;;;6.47;;
22026;SDS011;11177;50.966;10.070;2023-09-07T05:07:32;8.88;;;6.40;;
22026;SDS011;11177;50.966;10.070;2023-09-07T05:09:59;9.02;;;6.07;;
22026;SDS011;11177;50.966;10.070;2023-09-07T05:12:26;16.17;;;6.70;;
22026;SDS011;11177;50.966;10.070;2023-09-07T05:14:54;7.43;;;6.50;;
22026;SDS011;11177;50.966;10.070;2023-09-07T05:17:21;11.50;;;6.50;;
22026;SDS011;11177;50.966;10.070;2023-09-07T05:19:49;9.40;;;6.90;;
22026;SDS011;11177;50.966;10.070;2023-09-07T05:22:15;10.23;;;6.28;;
22026;SDS011;11177;50.966;10.070;2023-09-07T05:24:43;8.18;;;6.18;;
22026;SDS011;11177;50.966;10.070;2023-09-07T05:27:13;14.82;;;6.20;;
22026;SDS011;11177;50.966;10.070;2023-09-07T05:29:40;8.38;;;6.25;;
22026;SDS011;11177;50.966;10.070;2023-09-07T05:32:07;9.82;;;6.40;;
22026;SDS011;11177;50.966;10.070;2023-09-07T05:34:36;10.35;;;6.72;;
22026;SDS011;11177;50.966;10.070;2023-09-07T05:37:03;9.00;;;6.38;;
22026;SDS011;11177;50.966;10.070;2023-09-07T05:39:30;9.82;;;6.20;;
22026;SDS011;11177;50.966;10.070;2023-09-07T05:41:57;8.68;;;6.35;;
22026;SDS011;11177;50.966;10.070;2023-09-07T05:44:24;9.88;;;6.40;;
22026;SDS011;11177;50.966;10.070;2023-09-07T05:46:51;8.98;;;6.20;;
22026;SDS011;11177;50.966;10.070;2023-09-07T05:49:18;9.27;;;6.32;;
22026;SDS011;11177;50.966;10.070;2023-09-07T05:51:45;8.95;;;5.90;;
22026;SDS011;11177;50.966;10.070;2023-09-07T05:54:12;7.63;;;6.50;;
22026;SDS011;11177;50.966;10.070;2023-09-07T05:56:39;8.88;;;6.32;;
22026;SDS011;11177;50.966;10.070;2023-09-07T05:59:05;7.90;;;6.07;;
22026;SDS011;11177;50.966;10.070;2023-09-07T06:01:32;8.95;;;6.40;;
22026;SDS011;11177;50.966;10.070;2023-09-07T06:03:59;10.35;;;6.63;;
22026;SDS011;11177;50.966;10.070;2023-09-07T06:06:26;11.23;;;6.30;;
22026;SDS011;11177;50.966;10.070;2023-09-07T06:08:53;8.77;;;6.68;;
22026;SDS011;11177;50.966;10.070;2023-09-07T06:11:20;7.97;;;6.35;;
22026;SDS011;11177;50.966;10.070;2023-09-07T06:13:47;9.30;;;6.50;;
22026;SDS011;11177;50.966;10.070;2023-09-07T06:16:15;7.90;;;6.38;;
22026;SDS011;11177;50.966;10.070;2023-09-07T06:18:43;9.30;;;6.53;;
22026;SDS011;11177;50.966;10.070;2023-09-07T06:21:10;12.23;;;6.68;;
22026;SDS011;11177;50.966;10.070;2023-09-07T06:23:37;7.65;;;6.30;;
22026;SDS011;11177;50.966;10.070;2023-09-07T06:26:03;7.75;;;6.65;;
22026;SDS011;11177;50.966;10.070;2023-09-07T06:28:30;12.00;;;7.22;;
22026;SDS011;11177;50.966;10.070;2023-09-07T06:30:57;10.82;;;7.20;;
22026;SDS011;11177;50.966;10.070;2023-09-07T06:33:25;11.82;;;7.10;;
22026;SDS011;11177;50.966;10.070;2023-09-07T06:35:52;13.40;;;7.85;;
22026;SDS011;11177;50.966;10.070;2023-09-07T06:38:18;13.23;;;7.82;;
22026;SDS011;11177;50.966;10.070;2023-09-07T06:40:48;12.65;;;7.95;;
22026;SDS011;11177;50.966;10.070;2023-09-07T06:43:16;9.18;;;7.55;;
22026;SDS011;11177;50.966;10.070;2023-09-07T06:45:43;8.85;;;7.80;;
22026;SDS011;11177;50.966;10.070;2023-09-07T06:48:11;9.80;;;7.30;;
22026;SDS011;11177;50.966;10.070;2023-09-07T06:50:39;14.15;;;7.38;;
22026;SDS011;11177;50.966;10.070;2023-09-07T06:53:06;10.57;;;7.15;;
22026;SDS011;11177;50.966;10.070;2023-09-07T06:55:33;11.52;;;7.55;;
22026;SDS011;11177;50.966;10.070;2023-09-07T06:58:00;11.60;;;7.32;;
22026;SDS011;11177;50.966;10.070;2023-09-07T07:00:27;9.25;;;7.60;;
22026;SDS011;11177;50.966;10.070;2023-09-07T07:02:55;9.32;;;7.60;;
22026;SDS011;11177;50.966;10.070;2023-09-07T07:05:24;12.65;;;7.70;;
22026;SDS011;11177;50.966;10.070;2023-09-07T07:07:53;20.98;;;7.18;;
22026;SDS011;11177;50.966;10.070;2023-09-07T07:10:20;12.70;;;7.28;;
22026;SDS011;11177;50.966;10.070;2023-09-07T07:12:47;10.52;;;7.30;;
22026;SDS011;11177;50.966;10.070;2023-09-07T07:15:13;12.95;;;7.75;;
22026;SDS011;11177;50.966;10.070;2023-09-07T07:17:40;11.00;;;7.38;;
22026;SDS011;11177;50.966;10.070;2023-09-07T07:20:07;11.07;;;7.70;;
22026;SDS011;11177;50.966;10.070;2023-09-07T07:22:35;9.30;;;7.10;;
22026;SDS011;11177;50.966;10.070;2023-09-07T07:25:02;16.02;;;7.75;;
22026;SDS011;11177;50.966;10.070;2023-09-07T07:27:32;14.15;;;8.25;;
22026;SDS011;11177;50.966;10.070;2023-09-07T07:29:59;12.43;;;7.45;;
22026;SDS011;11177;50.966;10.070;2023-09-07T07:32:26;10.30;;;7.32;;
22026;SDS011;11177;50.966;10.070;2023-09-07T07:34:53;10.13;;;8.02;;
22026;SDS011;11177;50.966;10.070;2023-09-07T07:37:19;12.43;;;7.97;;
22026;SDS011;11177;50.966;10.070;2023-09-07T07:39:46;10.30;;;7.10;;
22026;SDS011;11177;50.966;10.070;2023-09-07T07:42:13;12.35;;;7.68;;
22026;SDS011;11177;50.966;10.070;2023-09-07T07:44:40;12.43;;;6.97;;
22026;SDS011;11177;50.966;10.070;2023-09-07T07:47:07;10.00;;;7.07;;
22026;SDS011;11177;50.966;10.070;2023-09-07T07:49:34;7.55;;;6.78;;
22026;SDS011;11177;50.966;10.070;2023-09-07T07:52:02;9.30;;;6.78;;
22026;SDS011;11177;50.966;10.070;2023-09-07T07:54:30;9.00;;;5.82;;
22026;SDS011;11177;50.966;10.070;2023-09-07T07:56:57;9.18;;;5.72;;
22026;SDS011;11177;50.966;10.070;2023-09-07T07:59:23;12.25;;;5.65;;
22026;SDS011;11177;50.966;10.070;2023-09-07T08:01:50;8.38;;;5.65;;
22026;SDS011;11177;50.966;10.070;2023-09-07T08:04:17;5.78;;;5.25;;
22026;SDS011;11177;50.966;10.070;2023-09-07T08:06:44;7.30;;;5.40;;
22026;SDS011;11177;50.966;10.070;2023-09-07T08:09:11;6.50;;;5.25;;
22026;SDS011;11177;50.966;10.070;2023-09-07T08:11:39;9.80;;;5.80;;
22026;SDS011;11177;50.966;10.070;2023-09-07T08:14:06;8.77;;;5.40;;
22026;SDS011;11177;50.966;10.070;2023-09-07T08:16:33;11.43;;;5.32;;
22026;SDS011;11177;50.966;10.070;2023-09-07T08:19:00;9.35;;;5.88;;
22026;SDS011;11177;50.966;10.070;2023-09-07T08:21:27;9.07;;;5.13;;
22026;SDS011;11177;50.966;10.070;2023-09-07T08:23:54;8.15;;;4.90;;
22026;SDS011;11177;50.966;10.070;2023-09-07T08:26:21;8.18;;;4.97;;
22026;SDS011;11177;50.966;10.070;2023-09-07T08:28:48;6.00;;;4.95;;
22026;SDS011;11177;50.966;10.070;2023-09-07T08:31:14;7.90;;;4.80;;
22026;SDS011;11177;50.966;10.070;2023-09-07T08:33:48;5.17;;;4.63;;
22026;SDS011;11177;50.966;10.070;2023-09-07T08:36:17;7.43;;;4.95;;
22026;SDS011;11177;50.966;10.070;2023-09-07T08:38:44;12.65;;;5.03;;
22026;SDS011;11177;50.966;10.070;2023-09-07T08:41:10;8.02;;;4.75;;
22026;SDS011;11177;50.966;10.070;2023-09-07T08:43:39;8.43;;;4.70;;
22026;SDS011;11177;50.966;10.070;2023-09-07T08:46:18;7.00;;;4.60;;
22026;SDS011;11177;50.966;10.070;2023-09-07T08:48:49;5.00;;;4.55;;
22026;SDS011;11177;50.966;10.070;2023-09-07T08:51:18;6.28;;;4.68;;
22026;SDS011;11177;50.966;10.070;2023-09-07T08:53:46;6.03;;;4.75;;
22026;SDS011;11177;50.966;10.070;2023-09-07T08:56:13;7.20;;;4.40;;
22026;SDS011;11177;50.966;10.070;2023-09-07T08:58:41;8.45;;;4.60;;
22026;SDS011;11177;50.966;10.070;2023-09-07T09:01:08;8.35;;;4.68;;
22026;SDS011;11177;50.966;10.070;2023-09-07T09:03:36;6.93;;;5.10;;
22026;SDS011;11177;50.966;10.070;2023-09-07T09:06:03;7.32;;;4.97;;
22026;SDS011;11177;50.966;10.070;2023-09-07T09:11:17;8.32;;;4.85;;
22026;SDS011;11177;50.966;10.070;2023-09-07T09:13:44;9.10;;;4.43;;
22026;SDS011;11177;50.966;10.070;2023-09-07T09:16:12;4.82;;;4.38;;
22026;SDS011;11177;50.966;10.070;2023-09-07T09:18:52;7.35;;;4.28;;
22026;SDS011;11177;50.966;10.070;2023-09-07T09:21:24;7.05;;;4.40;;
22026;SDS011;11177;50.966;10.070;2023-09-07T09:23:52;5.22;;;4.38;;
22026;SDS011;11177;50.966;10.070;2023-09-07T09:26:21;4.93;;;4.43;;
22026;SDS011;11177;50.966;10.070;2023-09-07T09:28:55;7.07;;;4.22;;
22026;SDS011;11177;50.966;10.070;2023-09-07T09:31:23;7.22;;;4.35;;
22026;SDS011;11177;50.966;10.070;2023-09-07T09:33:51;7.53;;;4.25;;
22026;SDS011;11177;50.966;10.070;2023-09-07T09:36:19;4.82;;;4.05;;
22026;SDS011;11177;50.966;10.070;2023-09-07T09:38:47;4.20;;;3.90;;
22026;SDS011;11177;50.966;10.070;2023-09-07T09:41:19;6.35;;;4.00;;
22026;SDS011;11177;50.966;10.070;2023-09-07T09:43:47;5.88;;;3.97;;
22026;SDS011;11177;50.966;10.070;2023-09-07T09:46:18;5.43;;;4.25;;
22026;SDS011;11177;50.966;10.070;2023-09-07T09:48:45;6.07;;;4.00;;
22026;SDS011;11177;50.966;10.070;2023-09-07T09:51:12;4.55;;;3.40;;
22026;SDS011;11177;50.966;10.070;2023-09-07T09:53:41;4.90;;;4.35;;
22026;SDS011;11177;50.966;10.070;2023-09-07T09:56:08;4.40;;;4.00;;
22026;SDS011;11177;50.966;10.070;2023-09-07T09:58:36;4.95;;;4.20;;
22026;SDS011;11177;50.966;10.070;2023-09-07T10:01:03;3.97;;;3.58;;
22026;SDS011;11177;50.966;10.070;2023-09-07T10:03:36;3.78;;;3.47;;
22026;SDS011;11177;50.966;10.070;2023-09-07T10:06:12;5.35;;;3.75;;
22026;SDS011;11177;50.966;10.070;2023-09-07T10:08:54;4.13;;;3.70;;
22026;SDS011;11177;50.966;10.070;2023-09-07T10:11:50;4.63;;;3.80;;
22026;SDS011;11177;50.966;10.070;2023-09-07T10:14:18;3.97;;;3.60;;
22026;SDS011;11177;50.966;10.070;2023-09-07T10:16:46;4.15;;;3.50;;
22026;SDS011;11177;50.966;10.070;2023-09-07T10:19:24;5.82;;;3.95;;
22026;SDS011;11177;50.966;10.070;2023-09-07T10:21:55;7.70;;;3.47;;
22026;SDS011;11177;50.966;10.070;2023-09-07T10:24:29;7.30;;;3.53;;
22026;SDS011;11177;50.966;10.070;2023-09-07T10:27:01;4.65;;;3.42;;
22026;SDS011;11177;50.966;10.070;2023-09-07T10:29:45;6.63;;;3.65;;
22026;SDS011;11177;50.966;10.070;2023-09-07T10:32:13;5.68;;;3.67;;
22026;SDS011;11177;50.966;10.070;2023-09-07T10:34:45;5.35;;;3.40;;
22026;SDS011;11177;50.966;10.070;2023-09-07T10:37:13;3.58;;;3.28;;
22026;SDS011;11177;50.966;10.070;2023-09-07T10:39:42;3.63;;;3.33;;
22026;SDS011;11177;50.966;10.070;2023-09-07T10:42:19;4.70;;;3.70;;
22026;SDS011;11177;50.966;10.070;2023-09-07T10:44:47;4.10;;;3.70;;
22026;SDS011;11177;50.966;10.070;2023-09-07T10:47:14;7.18;;;3.75;;
22026;SDS011;11177;50.966;10.070;2023-09-07T10:49:41;4.05;;;3.65;;
22026;SDS011;11177;50.966;10.070;2023-09-07T10:52:09;5.88;;;3.72;;
22026;SDS011;11177;50.966;10.070;2023-09-07T10:54:36;5.70;;;3.35;;
22026;SDS011;11177;50.966;10.070;2023-09-07T10:57:10;4.00;;;2.95;;
22026;SDS011;11177;50.966;10.070;2023-09-07T10:59:37;7.93;;;3.22;;
22026;SDS011;11177;50.966;10.070;2023-09-07T11:02:04;4.32;;;3.30;;
22026;SDS011;11177;50.966;10.070;2023-09-07T11:04:32;3.70;;;3.17;;
22026;SDS011;11177;50.966;10.070;2023-09-07T11:07:00;3.58;;;3.28;;
22026;SDS011;11177;50.966;10.070;2023-09-07T11:09:29;6.95;;;3.20;;
22026;SDS011;11177;50.966;10.070;2023-09-07T11:11:56;3.88;;;3.05;;
22026;SDS011;11177;50.966;10.070;2023-09-07T11:14:28;3.65;;;3.20;;
22026;SDS011;11177;50.966;10.070;2023-09-07T11:16:56;4.60;;;2.95;;
22026;SDS011;11177;50.966;10.070;2023-09-07T11:19:22;3.75;;;3.28;;
22026;SDS011;11177;50.966;10.070;2023-09-07T11:21:52;6.13;;;3.40;;
22026;SDS011;11177;50.966;10.070;2023-09-07T11:24:20;6.45;;;3.55;;
22026;SDS011;11177;50.966;10.070;2023-09-07T11:26:47;4.20;;;3.35;;
22026;SDS011;11177;50.966;10.070;2023-09-07T11:29:16;7.45;;;3.67;;
22026;SDS011;11177;50.966;10.070;2023-09-07T11:31:47;4.45;;;3.22;;
22026;SDS011;11177;50.966;10.070;2023-09-07T11:34:14;3.70;;;3.40;;
22026;SDS011;11177;50.966;10.070;2023-09-07T11:36:42;4.03;;;3.45;;
22026;SDS011;11177;50.966;10.070;2023-09-07T11:39:10;3.97;;;3.38;;
22026;SDS011;11177;50.966;10.070;2023-09-07T11:41:44;8.13;;;3.40;;
22026;SDS011;11177;50.966;10.070;2023-09-07T11:44:11;3.80;;;3.20;;
22026;SDS011;11177;50.966;10.070;2023-09-07T11:46:39;4.07;;;2.83;;
22026;SDS011;11177;50.966;10.070;2023-09-07T11:49:06;7.05;;;3.20;;
22026;SDS011;11177;50.966;10.070;2023-09-07T11:51:33;3.00;;;2.70;;
22026;SDS011;11177;50.966;10.070;2023-09-07T11:54:01;5.70;;;2.97;;
22026;SDS011;11177;50.966;10.070;2023-09-07T11:56:29;7.20;;;2.53;;
22026;SDS011;11177;50.966;10.070;2023-09-07T11:58:56;3.88;;;2.63;;
22026;SDS011;11177;50.966;10.070;2023-09-07T12:01:23;2.95;;;2.50;;
22026;SDS011;11177;50.966;10.070;2023-09-07T12:03:50;2.78;;;2.50;;
22026;SDS011;11177;50.966;10.070;2023-09-07T12:06:20;3.05;;;2.70;;
22026;SDS011;11177;50.966;10.070;2023-09-07T12:09:03;5.93;;;2.85;;
22026;SDS011;11177;50.966;10.070;2023-09-07T12:11:32;4.82;;;3.00;;
22026;SDS011;11177;50.966;10.070;2023-09-07T12:13:59;3.20;;;2.90;;
22026;SDS011;11177;50.966;10.070;2023-09-07T12:16:26;5.13;;;3.10;;
22026;SDS011;11177;50.966;10.070;2023-09-07T12:18:54;3.20;;;2.90;;
22026;SDS011;11177;50.966;10.070;2023-09-07T12:21:21;4.47;;;3.15;;
22026;SDS011;11177;50.966;10.070;2023-09-07T12:23:48;6.57;;;3.25;;
22026;SDS011;11177;50.966;10.070;2023-09-07T12:26:15;6.13;;;3.30;;
22026;SDS011;11177;50.966;10.070;2023-09-07T12:28:43;6.07;;;3.10;;
22026;SDS011;11177;50.966;10.070;2023-09-07T12:31:11;9.48;;;3.30;;
22026;SDS011;11177;50.966;10.070;2023-09-07T12:33:38;6.40;;;3.20;;
22026;SDS011;11177;50.966;10.070;2023-09-07T12:36:05;8.05;;;3.40;;
22026;SDS011;11177;50.966;10.070;2023-09-07T12:38:36;3.67;;;3.03;;
22026;SDS011;11177;50.966;10.070;2023-09-07T12:41:02;5.60;;;3.55;;
22026;SDS011;11177;50.966;10.070;2023-09-07T12:43:29;4.45;;;3.25;;
22026;SDS011;11177;50.966;10.070;2023-09-07T12:45:57;4.45;;;3.70;;
22026;SDS011;11177;50.966;10.070;2023-09-07T12:48:25;8.30;;;3.20;;
22026;SDS011;11177;50.966;10.070;2023-09-07T12:50:53;5.38;;;3.60;;
22026;SDS011;11177;50.966;10.070;2023-09-07T12:53:20;6.25;;;3.40;;
22026;SDS011;11177;50.966;10.070;2023-09-07T12:55:51;7.43;;;3.60;;
22026;SDS011;11177;50.966;10.070;2023-09-07T12:58:19;11.38;;;3.40;;
22026;SDS011;11177;50.966;10.070;2023-09-07T13:00:46;8.05;;;3.90;;
22026;SDS011;11177;50.966;10.070;2023-09-07T13:03:17;5.30;;;3.30;;
22026;SDS011;11177;50.966;10.070;2023-09-07T13:05:45;7.80;;;3.40;;
22026;SDS011;11177;50.966;10.070;2023-09-07T13:08:12;5.25;;;3.92;;
22026;SDS011;11177;50.966;10.070;2023-09-07T13:10:39;7.55;;;3.50;;
22026;SDS011;11177;50.966;10.070;2023-09-07T13:13:06;5.70;;;3.65;;
22026;SDS011;11177;50.966;10.070;2023-09-07T13:15:33;4.45;;;3.38;;
22026;SDS011;11177;50.966;10.070;2023-09-07T13:18:00;10.82;;;3.55;;
22026;SDS011;11177;50.966;10.070;2023-09-07T13:20:27;4.28;;;3.47;;
22026;SDS011;11177;50.966;10.070;2023-09-07T13:22:54;7.43;;;3.05;;
22026;SDS011;11177;50.966;10.070;2023-09-07T13:25:21;3.35;;;3.05;;
22026;SDS011;11177;50.966;10.070;2023-09-07T13:27:48;3.70;;;3.40;;
22026;SDS011;11177;50.966;10.070;2023-09-07T13:30:15;5.95;;;3.33;;
22026;SDS011;11177;50.966;10.070;2023-09-07T13:32:42;6.35;;;3.13;;
22026;SDS011;11177;50.966;10.070;2023-09-07T13:35:12;4.68;;;3.42;;
22026;SDS011;11177;50.966;10.070;2023-09-07T13:37:39;7.22;;;3.25;;
22026;SDS011;11177;50.966;10.070;2023-09-07T13:40:06;8.27;;;3.40;;
22026;SDS011;11177;50.966;10.070;2023-09-07T13:42:34;3.92;;;3.05;;
22026;SDS011;11177;50.966;10.070;2023-09-07T13:45:01;4.65;;;3.20;;
22026;SDS011;11177;50.966;10.070;2023-09-07T13:47:29;5.10;;;3.35;;
22026;SDS011;11177;50.966;10.070;2023-09-07T13:49:56;5.40;;;3.47;;
22026;SDS011;11177;50.966;10.070;2023-09-07T13:52:23;4.00;;;3.10;;
22026;SDS011;11177;50.966;10.070;2023-09-07T13:54:50;5.85;;;3.17;;
22026;SDS011;11177;50.966;10.070;2023-09-07T13:57:16;4.00;;;3.25;;
22026;SDS011;11177;50.966;10.070;2023-09-07T13:59:43;6.10;;;3.40;;
22026;SDS011;11177;50.966;10.070;2023-09-07T14:02:10;6.80;;;3.70;;
22026;SDS011;11177;50.966;10.070;2023-09-07T14:04:37;5.80;;;3.08;;
22026;SDS011;11177;50.966;10.070;2023-09-07T14:07:04;4.93;;;3.42;;
22026;SDS011;11177;50.966;10.070;2023-09-07T14:09:31;6.50;;;3.40;;
22026;SDS011;11177;50.966;10.070;2023-09-07T14:11:57;6.60;;;3.30;;
22026;SDS011;11177;50.966;10.070;2023-09-07T14:14:24;4.43;;;3.30;;
22026;SDS011;11177;50.966;10.070;2023-09-07T14:16:51;5.80;;;3.45;;
22026;SDS011;11177;50.966;10.070;2023-09-07T14:19:23;6.20;;;3.25;;
22026;SDS011;11177;50.966;10.070;2023-09-07T14:21:53;6.68;;;3.50;;
22026;SDS011;11177;50.966;10.070;2023-09-07T14:24:19;4.90;;;3.30;;
22026;SDS011;11177;50.966;10.070;2023-09-07T14:26:46;5.57;;;3.80;;
22026;SDS011;11177;50.966;10.070;2023-09-07T14:29:13;3.47;;;3.00;;
22026;SDS011;11177;50.966;10.070;2023-09-07T14:31:40;3.45;;;3.08;;
22026;SDS011;11177;50.966;10.070;2023-09-07T14:34:10;5.25;;;2.92;;
22026;SDS011;11177;50.966;10.070;2023-09-07T14:36:37;4.05;;;3.35;;
22026;SDS011;11177;50.966;10.070;2023-09-07T14:39:08;3.70;;;3.10;;
22026;SDS011;11177;50.966;10.070;2023-09-07T14:41:35;5.05;;;3.10;;